Time;durP1;ratioP1;P1;durP2;ratioP2;P2;SDS_P1;SDS_P2;PMS_P1;PMS_P2;Temp;Humidity;BMP_temperature;BMP_pressure;BME280_temperature;BME280_humidity;BME280_pressure;Samples;Min_cycle;Max_cycle;Signal;HPM_P1;HPM_P2
2022/07/18 00:00:58;;;;;;;3.00;2.00;;;15.90;99.90;;;;;;4255670;27;20204;-81
2022/07/18 00:03:00;;;;;;;2.63;2.10;;;15.90;99.90;;;;;;4256380;27;20204;-79
2022/07/18 00:05:01;;;;;;;3.33;2.23;;;15.80;99.90;;;;;;4251228;27;20214;-79
2022/07/18 00:07:05;;;;;;;3.50;2.17;;;15.80;99.90;;;;;;4246429;27;20298;-79
2022/07/18 00:09:06;;;;;;;4.37;2.17;;;15.80;99.90;;;;;;4250203;27;20267;-79
2022/07/18 00:11:10;;;;;;;2.90;2.00;;;15.70;99.90;;;;;;4234862;27;20242;-79
2022/07/18 00:13:12;;;;;;;3.57;2.47;;;15.70;99.90;;;;;;4222694;28;20202;-79
2022/07/18 00:15:14;;;;;;;3.43;2.17;;;15.70;99.90;;;;;;4239940;27;20214;-79
2022/07/18 00:17:16;;;;;;;3.87;2.03;;;15.70;99.90;;;;;;4249039;27;20272;-79
2022/07/18 00:19:18;;;;;;;4.80;2.73;;;15.60;99.90;;;;;;4237179;27;20234;-79
2022/07/18 00:21:20;;;;;;;4.10;2.33;;;15.70;99.90;;;;;;4233664;27;20238;-79
2022/07/18 00:23:22;;;;;;;3.07;2.03;;;15.60;99.90;;;;;;4237941;27;20209;-79
2022/07/18 00:25:24;;;;;;;5.57;2.37;;;15.60;99.90;;;;;;4250935;27;20287;-79
2022/07/18 00:27:27;;;;;;;4.33;2.47;;;15.60;99.90;;;;;;4250619;27;20213;-79
2022/07/18 00:29:29;;;;;;;3.93;2.23;;;15.60;99.90;;;;;;4237348;27;20226;-79
2022/07/18 00:31:31;;;;;;;3.37;2.43;;;15.50;99.90;;;;;;4238238;27;20210;-79
2022/07/18 00:33:33;;;;;;;3.60;2.20;;;15.50;99.90;;;;;;4233678;27;20257;-79
2022/07/18 00:35:35;;;;;;;3.43;2.10;;;15.50;99.90;;;;;;4245485;27;20285;-79
2022/07/18 00:37:37;;;;;;;2.57;2.20;;;15.50;99.90;;;;;;4239719;27;20217;-79
2022/07/18 00:39:39;;;;;;;5.50;2.53;;;15.50;99.90;;;;;;4246104;27;20287;-79
2022/07/18 00:41:46;;;;;;;5.50;2.63;;;15.50;99.90;;;;;;4244100;27;20280;-79
2022/07/18 00:43:50;;;;;;;4.63;2.30;;;15.50;99.90;;;;;;4247117;27;20219;-80
2022/07/18 00:45:52;;;;;;;4.03;2.50;;;15.50;99.90;;;;;;4245509;27;20227;-79
2022/07/18 00:47:54;;;;;;;4.67;2.33;;;15.40;99.90;;;;;;4248788;27;20224;-79
2022/07/18 00:49:56;;;;;;;5.03;2.43;;;15.40;99.90;;;;;;4249350;27;20297;-79
2022/07/18 00:51:59;;;;;;;3.23;2.13;;;15.40;99.90;;;;;;4242970;27;20209;-79
2022/07/18 00:54:01;;;;;;;3.63;2.30;;;15.40;99.90;;;;;;4241534;27;20213;-79
2022/07/18 00:56:04;;;;;;;3.93;2.30;;;15.40;99.90;;;;;;4232574;27;20207;-79
2022/07/18 00:58:08;;;;;;;7.00;2.60;;;15.40;99.90;;;;;;4243955;27;20224;-79
2022/07/18 01:02:33;;;;;;;3.07;2.20;;;15.30;99.90;;;;;;4234300;27;20811;-79
2022/07/18 01:04:35;;;;;;;3.57;2.17;;;15.30;99.90;;;;;;4234927;27;20211;-79
2022/07/18 01:06:37;;;;;;;4.43;2.30;;;15.30;99.90;;;;;;4242730;27;20288;-79
2022/07/18 01:08:42;;;;;;;3.67;2.30;;;15.30;99.90;;;;;;4236878;27;20291;-78
2022/07/18 01:10:44;;;;;;;3.67;2.70;;;15.30;99.90;;;;;;4242247;27;20310;-79
2022/07/18 01:12:46;;;;;;;4.27;2.47;;;15.20;99.90;;;;;;4243479;27;20209;-79
2022/07/18 01:14:49;;;;;;;5.00;2.57;;;15.20;99.90;;;;;;4237099;27;20217;-79
2022/07/18 01:16:52;;;;;;;3.43;2.40;;;15.20;99.90;;;;;;4232400;27;20296;-79
2022/07/18 01:18:54;;;;;;;4.63;2.43;;;15.20;99.90;;;;;;4239377;27;20564;-79
2022/07/18 01:20:57;;;;;;;4.13;2.33;;;15.10;99.90;;;;;;4241319;27;20218;-79
2022/07/18 01:22:59;;;;;;;3.90;2.30;;;15.10;99.90;;;;;;4244449;27;20259;-79
2022/07/18 01:25:01;;;;;;;2.80;2.10;;;15.10;99.90;;;;;;4242317;27;20234;-79
2022/07/18 01:27:07;;;;;;;4.47;2.20;;;15.10;99.90;;;;;;4240427;27;20243;-79
2022/07/18 01:29:09;;;;;;;4.33;2.17;;;14.90;99.90;;;;;;4231812;27;20226;-79
2022/07/18 01:31:11;;;;;;;4.27;2.23;;;15.00;99.90;;;;;;4237045;27;20939;-79
2022/07/18 01:33:13;;;;;;;3.77;2.47;;;15.00;99.90;;;;;;4243741;27;20235;-79
2022/07/18 01:35:15;;;;;;;6.17;2.63;;;15.00;99.90;;;;;;4236237;27;20212;-79
2022/07/18 01:37:18;;;;;;;5.00;2.30;;;14.90;99.90;;;;;;4240459;27;20628;-79
2022/07/18 01:39:20;;;;;;;5.03;2.40;;;14.60;99.90;;;;;;4235704;27;20963;-78
2022/07/18 01:41:22;;;;;;;3.30;2.20;;;14.80;99.90;;;;;;4248625;27;20220;-79
2022/07/18 01:43:25;;;;;;;4.07;2.57;;;14.80;99.90;;;;;;4249924;27;20230;-79
2022/07/18 01:45:26;;;;;;;6.03;2.53;;;14.80;99.90;;;;;;4247374;27;20708;-79
2022/07/18 01:47:28;;;;;;;4.83;2.27;;;14.80;99.90;;;;;;4255782;27;20216;-79
2022/07/18 01:49:30;;;;;;;3.97;2.60;;;14.80;99.90;;;;;;4253325;27;20272;-79
2022/07/18 01:51:32;;;;;;;3.53;2.10;;;14.80;99.90;;;;;;4245866;27;20199;-79
2022/07/18 01:53:35;;;;;;;4.50;2.30;;;14.80;99.90;;;;;;4234287;27;20214;-79
2022/07/18 01:55:37;;;;;;;4.43;2.47;;;14.70;99.90;;;;;;4243937;27;20208;-79
2022/07/18 01:57:40;;;;;;;2.73;1.90;;;14.70;99.90;;;;;;4243905;27;20235;-79
2022/07/18 01:59:41;;;;;;;5.07;2.00;;;14.60;99.90;;;;;;4239492;27;20319;-79
2022/07/18 02:01:44;;;;;;;3.70;1.93;;;14.60;99.90;;;;;;4243333;27;20728;-79
2022/07/18 02:03:45;;;;;;;3.63;2.20;;;14.60;99.90;;;;;;4243628;27;20201;-79
2022/07/18 02:05:47;;;;;;;4.53;2.30;;;14.60;99.90;;;;;;4245897;27;20204;-79
2022/07/18 02:07:49;;;;;;;3.43;2.30;;;14.60;99.90;;;;;;4245626;27;20606;-79
2022/07/18 02:09:53;;;;;;;4.47;2.40;;;14.50;99.90;;;;;;4237122;27;20201;-79
2022/07/18 02:11:55;;;;;;;4.23;2.10;;;14.50;99.90;;;;;;4237131;27;20250;-79
2022/07/18 02:13:57;;;;;;;3.70;2.27;;;14.50;99.90;;;;;;4246423;27;20580;-79
2022/07/18 02:16:00;;;;;;;3.10;2.20;;;14.50;99.90;;;;;;4231597;27;20627;-79
2022/07/18 02:18:02;;;;;;;4.63;2.30;;;14.50;99.90;;;;;;4239967;27;20231;-79
2022/07/18 02:20:06;;;;;;;3.27;2.17;;;14.50;99.90;;;;;;4238729;27;20275;-79
2022/07/18 02:22:08;;;;;;;4.40;2.10;;;14.40;99.90;;;;;;4236855;27;20966;-79
2022/07/18 02:24:10;;;;;;;3.50;2.30;;;14.40;99.90;;;;;;4239965;27;20207;-79
2022/07/18 02:26:13;;;;;;;4.73;2.50;;;14.40;99.90;;;;;;4240403;27;20216;-79
2022/07/18 02:28:15;;;;;;;3.80;2.00;;;14.40;99.90;;;;;;4232227;28;20324;-79
2022/07/18 02:30:17;;;;;;;3.17;2.10;;;14.40;99.90;;;;;;4244110;27;20268;-79
2022/07/18 02:32:19;;;;;;;3.83;2.23;;;14.40;99.90;;;;;;4240627;27;20208;-79
2022/07/18 02:34:21;;;;;;;3.80;2.40;;;14.40;99.90;;;;;;4243252;27;20200;-79
2022/07/18 02:36:23;;;;;;;4.80;2.30;;;14.30;99.90;;;;;;4239813;27;20201;-79
2022/07/18 02:38:25;;;;;;;3.47;2.27;;;14.30;99.90;;;;;;4234240;27;20229;-78
2022/07/18 02:40:27;;;;;;;4.23;2.10;;;14.30;99.90;;;;;;4239322;27;20219;-79
2022/07/18 02:42:30;;;;;;;3.50;2.50;;;14.30;99.90;;;;;;4244938;27;20223;-79
2022/07/18 02:44:32;;;;;;;4.33;2.30;;;14.30;99.90;;;;;;4246794;27;20207;-78
2022/07/18 02:46:34;;;;;;;5.00;2.10;;;14.20;99.90;;;;;;4256047;27;20341;-78
2022/07/18 02:48:36;;;;;;;3.30;2.33;;;14.20;99.90;;;;;;4248011;27;20582;-78
2022/07/18 02:50:38;;;;;;;3.13;1.87;;;14.20;99.90;;;;;;4244632;27;20208;-78
2022/07/18 02:52:41;;;;;;;3.90;2.30;;;14.20;99.90;;;;;;4252536;27;21501;-78
2022/07/18 02:54:43;;;;;;;3.13;2.20;;;14.20;99.90;;;;;;4246012;27;20202;-78
2022/07/18 02:56:45;;;;;;;3.40;2.17;;;14.20;99.90;;;;;;4244555;27;20302;-78
2022/07/18 02:58:48;;;;;;;4.97;2.13;;;14.10;99.90;;;;;;4236006;28;20261;-78
2022/07/18 03:00:50;;;;;;;4.53;2.67;;;14.10;99.90;;;;;;4237761;27;20739;-78
2022/07/18 03:02:52;;;;;;;4.67;2.10;;;14.10;99.90;;;;;;4237627;27;21704;-79
2022/07/18 03:04:54;;;;;;;3.77;2.33;;;14.10;99.90;;;;;;4234315;28;20203;-79
2022/07/18 03:06:56;;;;;;;3.30;2.00;;;14.00;99.90;;;;;;4243332;28;20789;-79
2022/07/18 03:08:58;;;;;;;3.80;2.30;;;14.10;99.90;;;;;;4245043;28;20231;-79
2022/07/18 03:11:02;;;;;;;4.03;2.07;;;14.10;99.90;;;;;;4246226;28;20250;-78
2022/07/18 03:13:04;;;;;;;3.23;1.90;;;14.00;99.90;;;;;;4235583;28;20197;-79
2022/07/18 03:15:56;;;;;;;4.63;2.40;;;14.00;99.90;;;;;;4232850;28;20217;-78
2022/07/18 03:18:48;;;;;;;3.73;2.00;;;14.00;99.90;;;;;;4241346;28;20223;-79
2022/07/18 03:21:41;;;;;;;3.93;2.10;;;14.00;99.90;;;;;;4239921;28;20237;-78
2022/07/18 03:24:33;;;;;;;4.27;2.17;;;13.90;99.90;;;;;;4238711;28;20231;-78
2022/07/18 03:27:25;;;;;;;3.20;2.03;;;13.90;99.90;;;;;;4245893;28;20203;-78
2022/07/18 03:30:17;;;;;;;3.73;2.30;;;13.90;99.90;;;;;;4252243;27;20229;-79
2022/07/18 03:33:09;;;;;;;4.33;2.43;;;13.90;99.90;;;;;;4251835;28;20275;-79
2022/07/18 03:36:02;;;;;;;4.00;2.33;;;13.90;99.90;;;;;;4255824;28;20207;-79
2022/07/18 03:38:53;;;;;;;2.93;2.00;;;13.80;99.90;;;;;;4246613;28;20236;-79
2022/07/18 03:41:45;;;;;;;4.47;2.43;;;13.80;99.90;;;;;;4243144;28;20687;-78
2022/07/18 03:44:37;;;;;;;3.30;2.07;;;13.80;99.90;;;;;;4242945;28;20567;-78
2022/07/18 03:47:30;;;;;;;5.07;2.30;;;13.80;99.90;;;;;;4243611;28;20294;-78
2022/07/18 03:50:22;;;;;;;3.63;1.97;;;13.80;99.90;;;;;;4236742;28;20853;-79
2022/07/18 03:53:14;;;;;;;4.20;2.10;;;13.70;99.90;;;;;;4238711;28;20302;-78
2022/07/18 03:56:07;;;;;;;4.10;2.30;;;13.70;99.90;;;;;;4239086;28;20208;-79
2022/07/18 03:58:59;;;;;;;3.47;2.20;;;13.70;99.90;;;;;;4236584;28;20236;-79
2022/07/18 04:01:51;;;;;;;5.60;2.57;;;13.70;99.90;;;;;;4243229;28;20215;-79
2022/07/18 04:04:43;;;;;;;3.27;2.20;;;13.70;99.90;;;;;;4235838;27;20208;-78
2022/07/18 04:07:35;;;;;;;5.03;2.80;;;13.70;99.90;;;;;;4234787;28;20250;-78
2022/07/18 04:10:28;;;;;;;5.00;2.70;;;13.70;99.90;;;;;;4240578;28;20215;-78
2022/07/18 04:13:21;;;;;;;7.97;2.63;;;13.70;99.90;;;;;;4238284;28;20208;-78
2022/07/18 04:16:13;;;;;;;5.20;2.40;;;13.70;99.90;;;;;;4244917;27;20277;-78
2022/07/18 04:19:05;;;;;;;4.63;2.50;;;13.70;99.90;;;;;;4238766;27;20238;-78
2022/07/18 04:21:57;;;;;;;4.23;2.40;;;13.70;99.90;;;;;;4240127;27;20877;-78
2022/07/18 04:24:49;;;;;;;4.40;2.63;;;13.70;99.90;;;;;;4239166;27;20210;-78
2022/07/18 04:27:42;;;;;;;5.33;2.60;;;13.70;99.90;;;;;;4245808;27;20302;-78
2022/07/18 04:30:33;;;;;;;6.47;2.80;;;13.70;99.90;;;;;;4238997;27;20212;-77
2022/07/18 04:33:26;;;;;;;4.33;2.30;;;13.80;99.90;;;;;;4234607;27;20902;-78
2022/07/18 04:36:18;;;;;;;2.73;2.10;;;13.80;99.90;;;;;;4244323;27;20287;-78
2022/07/18 04:39:11;;;;;;;3.97;2.17;;;13.80;99.90;;;;;;4240770;27;20284;-77
2022/07/18 04:42:04;;;;;;;4.93;2.20;;;13.80;99.90;;;;;;4238361;27;20235;-77
2022/07/18 04:44:56;;;;;;;7.57;2.20;;;13.80;99.90;;;;;;4241160;27;20216;-77
2022/07/18 04:47:00;;;;;;;3.67;2.17;;;13.80;99.90;;;;;;4234946;27;20208;-77
2022/07/18 04:49:02;;;;;;;4.83;2.17;;;13.80;99.90;;;;;;4231637;27;20224;-77
2022/07/18 04:51:04;;;;;;;3.23;2.13;;;13.80;99.90;;;;;;4240731;27;20589;-77
2022/07/18 04:53:06;;;;;;;4.67;2.00;;;13.80;99.90;;;;;;4223522;28;20267;-77
2022/07/18 04:55:09;;;;;;;5.73;2.17;;;13.80;99.90;;;;;;4230008;28;20205;-77
2022/07/18 04:57:14;;;;;;;4.37;2.40;;;13.80;99.90;;;;;;4244518;27;20672;-78
2022/07/18 04:59:16;;;;;;;6.40;2.70;;;13.80;99.90;;;;;;4243181;27;20219;-77
2022/07/18 05:01:18;;;;;;;3.60;2.10;;;13.80;99.90;;;;;;4245648;27;20203;-78
2022/07/18 05:03:21;;;;;;;5.10;2.67;;;13.90;99.90;;;;;;4225390;28;20302;-78
2022/07/18 05:05:25;;;;;;;4.37;2.47;;;13.90;99.90;;;;;;4245156;27;20237;-77
2022/07/18 05:07:27;;;;;;;6.40;2.50;;;13.90;99.90;;;;;;4246985;27;20674;-78
2022/07/18 05:09:29;;;;;;;4.50;2.30;;;13.90;99.90;;;;;;4220924;28;20626;-77
2022/07/18 05:11:31;;;;;;;4.60;2.40;;;13.90;99.90;;;;;;4229082;28;20204;-77
2022/07/18 05:13:33;;;;;;;5.53;2.23;;;14.00;99.90;;;;;;4234330;27;20227;-78
2022/07/18 05:15:34;;;;;;;4.83;2.67;;;14.00;99.90;;;;;;4238848;27;20207;-78
2022/07/18 05:17:37;;;;;;;6.07;2.43;;;14.00;99.90;;;;;;4246324;27;20276;-78
2022/07/18 05:19:40;;;;;;;6.57;2.60;;;14.00;99.90;;;;;;4242178;27;20307;-78
2022/07/18 05:21:42;;;;;;;3.60;2.30;;;14.10;99.90;;;;;;4244885;27;20203;-77
2022/07/18 05:23:45;;;;;;;3.60;2.43;;;14.10;99.90;;;;;;4241542;27;20235;-77
2022/07/18 05:25:47;;;;;;;4.37;2.53;;;14.10;99.90;;;;;;4223809;28;20248;-77
2022/07/18 05:27:49;;;;;;;4.73;2.50;;;14.40;99.90;;;;;;4227290;28;20231;-77
2022/07/18 05:29:51;;;;;;;8.73;2.83;;;14.20;99.90;;;;;;4249419;27;20195;-77
2022/07/18 05:31:53;;;;;;;5.23;2.60;;;14.20;99.90;;;;;;4242207;27;20269;-78
2022/07/18 05:33:55;;;;;;;5.37;2.50;;;14.30;99.90;;;;;;4247101;27;20213;-77
2022/07/18 05:35:58;;;;;;;5.40;2.20;;;14.30;99.90;;;;;;4225430;28;20675;-77
2022/07/18 05:38:00;;;;;;;3.43;2.30;;;14.40;99.90;;;;;;4235690;27;20319;-77
2022/07/18 05:40:02;;;;;;;4.40;2.63;;;14.40;99.90;;;;;;4244753;27;20223;-77
2022/07/18 05:42:04;;;;;;;7.70;2.57;;;14.40;99.90;;;;;;4245699;27;20204;-77
2022/07/18 05:44:06;;;;;;;4.97;2.27;;;14.50;99.90;;;;;;4248042;27;20359;-77
2022/07/18 05:46:09;;;;;;;5.23;2.53;;;14.40;99.90;;;;;;4245653;27;20277;-77
2022/07/18 05:48:10;;;;;;;5.00;2.20;;;14.50;99.90;;;;;;4240274;27;20228;-77
2022/07/18 05:50:12;;;;;;;6.07;2.20;;;14.50;99.90;;;;;;4248534;27;20266;-77
2022/07/18 05:52:16;;;;;;;5.50;2.30;;;14.60;99.90;;;;;;4227700;28;20289;-78
2022/07/18 05:54:19;;;;;;;4.07;1.80;;;14.60;99.90;;;;;;4246805;27;20241;-78
2022/07/18 05:56:21;;;;;;;4.13;2.00;;;14.60;99.90;;;;;;4248574;27;21667;-77
2022/07/18 05:58:26;;;;;;;3.80;2.10;;;14.70;99.90;;;;;;4224624;28;20256;-78
2022/07/18 06:00:28;;;;;;;4.87;1.90;;;14.70;99.90;;;;;;4241819;27;20299;-78
2022/07/18 06:02:30;;;;;;;4.57;2.10;;;14.70;99.90;;;;;;4241416;27;20627;-78
2022/07/18 06:04:35;;;;;;;3.27;1.90;;;14.80;99.90;;;;;;4242881;27;20197;-78
2022/07/18 06:06:37;;;;;;;2.70;1.80;;;14.80;99.90;;;;;;4243583;27;20223;-78
2022/07/18 06:08:44;;;;;;;2.67;1.80;;;14.80;99.90;;;;;;4240229;27;20247;-79
2022/07/18 06:10:49;;;;;;;4.17;1.67;;;14.90;99.90;;;;;;4219732;28;20197;-79
2022/07/18 06:12:52;;;;;;;4.70;2.00;;;14.90;99.90;;;;;;4220474;28;20802;-79
2022/07/18 06:14:54;;;;;;;3.47;1.70;;;15.00;99.90;;;;;;4238018;27;20204;-79
2022/07/18 06:16:57;;;;;;;3.77;1.83;;;15.00;99.90;;;;;;4240129;27;20214;-79
2022/07/18 06:18:59;;;;;;;2.80;1.70;;;15.00;99.90;;;;;;4243039;27;20253;-79
2022/07/18 06:21:02;;;;;;;2.17;1.50;;;15.00;99.90;;;;;;4243153;27;20224;-79
2022/07/18 06:23:04;;;;;;;4.93;1.67;;;15.10;99.90;;;;;;4220371;28;20263;-79
2022/07/18 06:25:08;;;;;;;3.07;1.40;;;15.10;99.90;;;;;;4241223;27;20217;-78
2022/07/18 06:27:10;;;;;;;3.37;1.57;;;15.20;99.90;;;;;;4233311;27;20207;-79
2022/07/18 06:29:12;;;;;;;5.17;1.80;;;15.20;99.90;;;;;;4222022;28;20275;-79
2022/07/18 06:31:16;;;;;;;2.80;1.63;;;15.30;99.90;;;;;;4239201;27;20248;-79
2022/07/18 06:33:17;;;;;;;3.43;2.00;;;15.30;99.90;;;;;;4243201;27;20217;-79
2022/07/18 06:35:19;;;;;;;4.67;1.73;;;15.40;99.90;;;;;;4238550;27;20203;-79
2022/07/18 06:37:21;;;;;;;3.83;2.13;;;15.50;99.90;;;;;;4217680;28;20225;-79
2022/07/18 06:39:23;;;;;;;5.33;2.03;;;15.50;99.90;;;;;;4233580;27;20239;-79
2022/07/18 06:41:26;;;;;;;6.63;1.63;;;15.60;99.90;;;;;;4242070;27;20663;-79
2022/07/18 06:43:28;;;;;;;4.90;1.97;;;15.70;99.90;;;;;;4236630;27;20221;-79
2022/07/18 06:45:30;;;;;;;2.70;1.70;;;15.70;99.90;;;;;;4215735;28;20289;-79
2022/07/18 06:47:32;;;;;;;3.60;2.00;;;15.80;99.90;;;;;;4231160;27;20211;-79
2022/07/18 06:49:34;;;;;;;6.03;1.83;;;15.90;99.90;;;;;;4219231;28;20689;-79
2022/07/18 06:51:37;;;;;;;4.73;1.90;;;16.00;99.90;;;;;;4237005;27;20208;-79
2022/07/18 06:53:41;;;;;;;3.47;1.70;;;16.00;99.90;;;;;;4210671;28;20240;-79
2022/07/18 06:55:43;;;;;;;3.83;1.47;;;16.10;99.90;;;;;;4232737;27;20293;-79
2022/07/18 06:57:46;;;;;;;2.33;1.50;;;16.20;99.90;;;;;;4216766;28;20204;-79
2022/07/18 06:59:48;;;;;;;3.87;1.63;;;16.30;99.90;;;;;;4222272;28;20238;-79
2022/07/18 07:01:50;;;;;;;5.40;1.60;;;16.30;99.90;;;;;;4229249;28;20212;-79
2022/07/18 07:03:55;;;;;;;2.43;1.60;;;16.40;99.90;;;;;;4242446;28;20223;-79
2022/07/18 07:05:57;;;;;;;3.07;1.50;;;16.40;99.90;;;;;;4234594;28;20218;-80
2022/07/18 07:08:02;;;;;;;3.80;1.50;;;16.70;99.90;;;;;;4235762;28;20241;-79
2022/07/18 07:10:04;;;;;;;4.23;1.67;;;16.60;99.90;;;;;;4244587;28;20695;-79
2022/07/18 07:12:07;;;;;;;3.40;1.77;;;16.60;99.90;;;;;;4236778;27;20887;-79
2022/07/18 07:14:10;;;;;;;2.77;1.53;;;16.70;99.90;;;;;;4239106;28;20804;-80
2022/07/18 07:16:12;;;;;;;2.67;1.27;;;16.80;99.90;;;;;;4243032;28;20215;-80
2022/07/18 07:18:14;;;;;;;5.83;1.40;;;16.90;99.90;;;;;;4239249;28;20228;-79
2022/07/18 07:20:18;;;;;;;3.70;1.60;;;17.00;99.90;;;;;;4239647;28;20230;-79
2022/07/18 07:22:20;;;;;;;2.57;1.43;;;17.10;99.90;;;;;;4238292;28;20207;-80
2022/07/18 07:24:22;;;;;;;1.90;1.30;;;17.20;99.90;;;;;;4241090;28;20235;-79
2022/07/18 07:26:23;;;;;;;2.30;1.27;;;17.20;99.90;;;;;;4235235;28;20227;-79
2022/07/18 07:28:25;;;;;;;2.30;1.50;;;17.30;99.90;;;;;;4230038;28;20259;-79
2022/07/18 07:30:29;;;;;;;3.20;1.37;;;17.40;99.90;;;;;;4213419;28;20857;-79
2022/07/18 07:32:36;;;;;;;3.40;1.43;;;17.50;99.90;;;;;;4215508;28;20297;-79
2022/07/18 07:34:37;;;;;;;5.43;1.37;;;17.50;99.90;;;;;;4241037;28;20204;-79
2022/07/18 07:36:39;;;;;;;3.00;1.33;;;17.60;99.90;;;;;;4220658;28;20205;-80
2022/07/18 07:38:41;;;;;;;2.17;1.40;;;17.60;99.90;;;;;;4238084;28;20227;-80
2022/07/18 07:40:43;;;;;;;3.53;1.40;;;17.70;99.90;;;;;;4231926;28;20225;-79
2022/07/18 07:42:45;;;;;;;2.13;1.40;;;17.80;99.90;;;;;;4241080;28;20231;-79
2022/07/18 07:44:47;;;;;;;2.73;1.20;;;17.80;99.90;;;;;;4241360;28;20304;-78
2022/07/18 07:46:51;;;;;;;2.47;1.07;;;17.90;99.90;;;;;;4239927;28;20273;-78
2022/07/18 07:48:53;;;;;;;3.50;1.10;;;18.00;99.90;;;;;;4216617;28;20275;-80
2022/07/18 07:50:55;;;;;;;2.70;1.33;;;18.10;99.90;;;;;;4244693;27;20211;-79
2022/07/18 07:52:57;;;;;;;2.73;1.20;;;18.20;99.90;;;;;;4234993;27;20204;-78
2022/07/18 07:54:59;;;;;;;3.67;1.30;;;18.30;99.90;;;;;;4225468;28;20686;-79
2022/07/18 07:57:01;;;;;;;2.70;1.00;;;18.40;99.90;;;;;;4241788;27;20208;-78
2022/07/18 07:59:03;;;;;;;4.07;1.10;;;18.50;99.00;;;;;;4218455;28;20299;-78
2022/07/18 08:01:06;;;;;;;1.80;1.00;;;18.60;98.80;;;;;;4234385;27;20312;-79
2022/07/18 08:03:10;;;;;;;2.80;1.20;;;18.70;96.70;;;;;;4220897;28;20210;-78
2022/07/18 08:05:12;;;;;;;1.43;1.00;;;18.80;93.80;;;;;;4239112;27;20204;-79
2022/07/18 08:07:14;;;;;;;1.97;1.30;;;18.80;97.90;;;;;;4243863;27;20653;-79
2022/07/18 08:09:16;;;;;;;4.07;1.40;;;18.90;94.60;;;;;;4224774;28;20246;-79
2022/07/18 08:11:18;;;;;;;5.77;1.27;;;19.00;96.90;;;;;;4215837;28;20199;-79
2022/07/18 08:13:20;;;;;;;2.80;1.43;;;19.10;94.40;;;;;;4238927;27;20242;-78
2022/07/18 08:15:22;;;;;;;3.10;0.90;;;19.20;91.70;;;;;;4221094;28;20304;-79
2022/07/18 08:17:24;;;;;;;2.47;1.20;;;19.30;85.10;;;;;;4239893;27;20209;-78
2022/07/18 08:19:27;;;;;;;1.30;0.80;;;19.40;92.40;;;;;;4241414;27;20308;-78
2022/07/18 08:21:32;;;;;;;2.57;1.00;;;19.40;94.30;;;;;;4238642;27;20233;-77
2022/07/18 08:23:35;;;;;;;2.33;1.10;;;19.50;97.50;;;;;;4241152;27;20210;-80
2022/07/18 08:25:39;;;;;;;1.83;1.00;;;19.60;99.00;;;;;;4218299;28;20654;-76
2022/07/18 08:27:41;;;;;;;1.43;0.97;;;19.60;96.40;;;;;;4243504;27;21119;-79
2022/07/18 08:29:43;;;;;;;2.77;1.23;;;19.70;95.40;;;;;;4239314;27;21084;-79
2022/07/18 08:31:45;;;;;;;7.10;1.30;;;19.80;94.70;;;;;;4225563;28;20254;-79
2022/07/18 08:33:47;;;;;;;1.87;0.97;;;19.90;89.30;;;;;;4241199;27;20228;-79
2022/07/18 08:35:51;;;;;;;4.20;1.50;;;20.00;83.40;;;;;;4224597;28;20204;-78
2022/07/18 08:37:53;;;;;;;2.53;1.10;;;20.00;80.30;;;;;;4243642;27;20245;-79
2022/07/18 08:39:55;;;;;;;3.90;1.13;;;20.10;77.70;;;;;;4223835;28;20291;-78
2022/07/18 08:41:59;;;;;;;2.33;1.10;;;20.20;77.00;;;;;;4222152;28;20212;-78
2022/07/18 08:44:01;;;;;;;2.70;0.93;;;20.30;69.90;;;;;;4243175;27;20751;-80
2022/07/18 08:46:06;;;;;;;2.03;1.00;;;20.40;68.50;;;;;;4226686;28;20208;-79
2022/07/18 08:48:08;;;;;;;1.83;1.00;;;20.60;58.30;;;;;;4245166;27;20771;-80
2022/07/18 08:50:11;;;;;;;1.60;0.90;;;20.70;54.10;;;;;;4216182;28;20266;-80
2022/07/18 08:52:15;;;;;;;3.00;1.20;;;20.80;58.50;;;;;;4221865;28;20215;-79
2022/07/18 08:54:17;;;;;;;2.47;0.90;;;20.90;62.70;;;;;;4244944;27;20211;-79
2022/07/18 08:56:19;;;;;;;1.97;0.97;;;21.00;55.00;;;;;;4244123;27;20199;-79
2022/07/18 08:58:29;;;;;;;7.33;1.10;;;21.10;56.20;;;;;;4236820;27;20234;-80
2022/07/18 09:00:31;;;;;;;3.27;1.20;;;21.20;55.90;;;;;;4222551;28;20208;-78
2022/07/18 09:02:33;;;;;;;1.03;0.90;;;21.30;58.90;;;;;;4220627;28;20397;-80
2022/07/18 09:04:37;;;;;;;1.00;0.80;;;21.40;58.50;;;;;;4223134;28;20847;-80
2022/07/18 09:06:46;;;;;;;2.30;1.00;;;21.40;60.60;;;;;;4223372;28;20307;-80
2022/07/18 09:09:01;;;;;;;1.57;0.90;;;21.50;59.20;;;;;;4243158;27;20310;-79
2022/07/18 09:11:04;;;;;;;0.90;0.70;;;21.60;63.10;;;;;;4243810;27;20201;-79
2022/07/18 09:13:06;;;;;;;0.80;0.80;;;21.70;65.30;;;;;;4225747;28;20218;-79
2022/07/18 09:15:10;;;;;;;0.87;0.70;;;21.70;66.20;;;;;;4248186;27;20204;-80
2022/07/18 09:17:16;;;;;;;1.57;0.80;;;21.80;67.10;;;;;;4228098;28;20201;-80
2022/07/18 09:19:18;;;;;;;3.53;1.13;;;21.90;49.60;;;;;;4240684;27;20232;-80
2022/07/18 09:21:23;;;;;;;1.90;0.87;;;22.00;50.70;;;;;;4224133;28;20228;-79
2022/07/18 09:23:28;;;;;;;1.93;1.10;;;22.10;49.30;;;;;;4246356;27;20273;-80
2022/07/18 09:25:34;;;;;;;1.43;0.90;;;22.20;46.70;;;;;;4246072;27;20199;-80
2022/07/18 09:27:39;;;;;;;2.87;1.20;;;22.30;48.50;;;;;;4247894;27;20207;-80
2022/07/18 09:29:41;;;;;;;2.90;1.00;;;22.40;44.60;;;;;;4226755;27;20276;-78
2022/07/18 09:31:49;;;;;;;2.10;1.13;;;22.60;45.80;;;;;;4218820;28;20211;-79
2022/07/18 09:33:54;;;;;;;2.43;0.93;;;22.70;48.10;;;;;;4219223;28;20643;-79
2022/07/18 09:35:57;;;;;;;2.77;1.00;;;22.80;48.40;;;;;;4222073;28;20211;-78
2022/07/18 09:38:02;;;;;;;2.13;1.00;;;22.90;45.00;;;;;;4216297;28;20296;-78
2022/07/18 09:40:18;;;;;;;2.17;1.00;;;23.00;45.30;;;;;;4239256;27;20211;-78
2022/07/18 09:42:21;;;;;;;1.17;0.90;;;23.10;46.20;;;;;;4236771;27;20249;-78
2022/07/18 09:44:23;;;;;;;0.93;0.87;;;23.20;47.20;;;;;;4239298;27;20229;-79
2022/07/18 09:46:25;;;;;;;1.67;1.00;;;23.30;48.40;;;;;;4217845;28;20222;-79
2022/07/18 09:48:34;;;;;;;1.53;1.00;;;23.30;47.20;;;;;;4244266;27;20266;-79
2022/07/18 09:50:40;;;;;;;3.73;1.00;;;23.50;47.40;;;;;;4242542;27;20295;-80
2022/07/18 09:52:42;;;;;;;2.07;1.00;;;23.60;45.90;;;;;;4235671;27;20223;-80
2022/07/18 09:54:47;;;;;;;1.70;1.10;;;23.70;48.20;;;;;;4221986;28;20735;-79
2022/07/18 09:56:49;;;;;;;2.30;1.10;;;23.80;46.60;;;;;;4217716;28;20215;-77
2022/07/18 09:58:55;;;;;;;1.53;1.20;;;23.90;45.40;;;;;;4240981;27;20315;-78
2022/07/18 10:00:59;;;;;;;5.37;1.47;;;24.00;43.90;;;;;;4234646;27;20208;-77
2022/07/18 10:03:02;;;;;;;3.13;1.60;;;24.10;40.10;;;;;;4222213;28;20235;-77
2022/07/18 10:05:05;;;;;;;5.23;1.43;;;24.30;37.70;;;;;;4216024;28;20685;-77
2022/07/18 10:07:07;;;;;;;6.33;2.20;;;24.40;36.50;;;;;;4233888;27;20204;-77
2022/07/18 10:09:09;;;;;;;5.57;1.97;;;24.50;36.90;;;;;;4211263;28;20418;-77
2022/07/18 10:11:12;;;;;;;2.83;1.40;;;24.60;35.20;;;;;;4232163;27;20212;-77
2022/07/18 10:13:14;;;;;;;2.20;1.30;;;24.70;37.00;;;;;;4238472;27;20290;-77
2022/07/18 10:15:18;;;;;;;3.57;1.70;;;24.90;39.00;;;;;;4221082;28;20209;-77
2022/07/18 10:17:21;;;;;;;2.73;1.73;;;25.00;35.20;;;;;;4217894;28;20300;-78
2022/07/18 10:19:23;;;;;;;3.63;1.97;;;25.10;37.20;;;;;;4221539;28;20228;-77
2022/07/18 10:21:25;;;;;;;2.80;1.57;;;25.20;37.30;;;;;;4236067;27;20223;-77
2022/07/18 10:23:30;;;;;;;4.20;1.80;;;25.30;37.60;;;;;;4216852;28;20226;-78
2022/07/18 10:25:32;;;;;;;3.03;1.73;;;25.40;36.30;;;;;;4231157;27;20203;-78
2022/07/18 10:27:49;;;;;;;3.33;1.60;;;25.50;34.70;;;;;;4224775;28;20212;-78
2022/07/18 10:30:09;;;;;;;4.27;1.70;;;25.60;36.40;;;;;;4232285;28;20266;-79
2022/07/18 10:32:13;;;;;;;3.40;1.77;;;25.70;37.50;;;;;;4246962;27;20207;-78
2022/07/18 10:34:15;;;;;;;3.33;1.80;;;25.80;37.90;;;;;;4225585;28;20212;-78
2022/07/18 10:36:18;;;;;;;2.73;1.70;;;25.90;40.30;;;;;;4221541;28;21057;-74
2022/07/18 10:38:21;;;;;;;2.27;1.40;;;26.00;38.90;;;;;;4241809;27;20243;-72
2022/07/18 10:40:26;;;;;;;2.60;1.60;;;26.10;40.00;;;;;;4237192;27;20230;-76
2022/07/18 10:42:30;;;;;;;2.93;1.70;;;26.20;40.10;;;;;;4231334;27;20276;-80
2022/07/18 10:44:34;;;;;;;3.33;1.60;;;26.20;40.80;;;;;;4217839;28;20212;-78
2022/07/18 10:47:08;;;;;;;1.97;1.57;;;26.30;39.20;;;;;;4219994;28;20212;-78
2022/07/18 10:49:11;;;;;;;3.73;1.50;;;26.40;36.70;;;;;;4212190;28;20224;-78
2022/07/18 10:51:15;;;;;;;3.40;1.60;;;26.50;38.90;;;;;;4222397;28;20204;-77
2022/07/18 10:53:17;;;;;;;3.27;1.60;;;26.60;36.70;;;;;;4220479;28;20204;-80
2022/07/18 10:55:37;;;;;;;3.43;1.80;;;26.70;35.90;;;;;;4228127;28;20211;-77
2022/07/18 10:57:41;;;;;;;2.10;1.30;;;26.70;35.60;;;;;;4219121;28;20777;-77
2022/07/18 11:00:07;;;;;;;3.60;1.70;;;26.80;35.00;;;;;;4217772;28;20203;-77
2022/07/18 11:02:09;;;;;;;3.53;1.30;;;26.90;35.70;;;;;;4234723;28;20215;-77
2022/07/18 11:04:27;;;;;;;3.00;1.70;;;27.00;34.30;;;;;;4239599;27;20609;-79
2022/07/18 11:06:56;;;;;;;2.60;1.37;;;27.20;35.00;;;;;;4233484;27;20266;-79
2022/07/18 11:09:32;;;;;;;2.87;1.77;;;27.30;36.20;;;;;;4242735;28;20646;-79
2022/07/18 11:11:34;;;;;;;2.80;1.43;;;27.40;37.60;;;;;;4239919;27;20218;-81